首页
METAR-TAF:

METAR-TAF

机场 :

特里布万国际机场

加德滿都, 尼泊尔

纬度: 27-42N, 经度: 085-22E, 海拔: 1337米

当前天气观测

该预报发布于10分钟前的15:20 UTC
风速4节,风向
温度 23°C
湿度 89%
气压 1012 hPa
能見度: 7000
少量云层高于800英尺
散云层高于3000英尺
多云层高于10000英尺

METAR: VNKT 161520Z 18004KT 7000 FEW008 SCT030 BKN100 23/21 Q1012 NOSIG

时间: 21:15 (15:30 UTC)

预报

该预报发布于4小时和30分钟前的11:00 UTC
预报有效从16日的 12点(UTC)到 17日的 12点(UTC)
风速5节,风向西转西南
能見度: 8000
少量云层高于1500英尺
散云层高于3000英尺
多云层高于10000英尺
几率 40%
从 16日的 12点(UTC)到 16日的 18点(UTC)
风速8节,风向西
能見度: 4000
少量云层高于2500英尺, 积雨云.
成为
从 16日的 14点(UTC)到 16日的 15点(UTC)
风速3节,风向
能見度: 7000
少量云层高于1000英尺
散云层高于3000英尺
多云层高于10000英尺
成为
从 17日的 00点(UTC)到 17日的 02点(UTC)
风速2节,风向多变
能見度: 5000
少量云层高于800英尺
散云层高于2500英尺
多云层高于10000英尺
小雨
成为
从 17日的 04点(UTC)到 17日的 05点(UTC)
风速3节,风向东转东南
能見度: 7000
少量云层高于1000英尺
散云层高于3000英尺
多云层高于10000英尺
成为
从 17日的 07点(UTC)到 17日的 08点(UTC)
风速10节,风向西
能見度: 8000
少量云层高于1500英尺
散云层高于3000英尺
多云层高于10000英尺
几率 40%
从 17日的 08点(UTC)到 17日的 12点(UTC)
风速12节,风向西转西北
少量云层高于2500英尺, 积雨云.

TAF: VNKT 161100Z 1612/1712 24005KT 8000 FEW015 SCT030 BKN100 PROB40 1612/1618 28008KT 4000 -RA/SHRA FEW025CB BECMG 1614/1615 10003KT 7000 FEW010 SCT030 BKN100 BECMG 1700/1702 VRB02KT 5000 -RA FEW008 SCT025 BKN100 BECMG 1704/1705 12003KT 7000 FEW010 SCT030 BKN100 BECMG 1707/1708 28010KT 8000 FEW015 SCT030 BKN100 PROB40 1708/1712 30012KT -RA/SHRA FEW025CB

超过4000个机场的气象观测和天气预报(METAR&TAF报告)。

可查询的气象台以黄色和红色小点在地图上表示。

将鼠标移到小点上方,可查看气象台名称。

然后点击查看天气观测和预报。

如需切换地图:点击带黑十字的绿色按钮放大地图;点击带横线的绿色按钮缩小地图;或者点击绿色箭头查看邻近地区的地图。


METAR-TAF: